Time;durP1;ratioP1;P1;durP2;ratioP2;P2;SDS_P1;SDS_P2;PMS_P1;PMS_P2;Temp;Humidity;BMP_temperature;BMP_pressure;BME280_temperature;BME280_humidity;BME280_pressure;Samples;Min_cycle;Max_cycle;Signal;HPM_P1;HPM_P2
2022/01/03 00:00:33;;;;;;;6.60;0.95;;;8.00;99.90;;;;;;5033046;28;20051;-82
2022/01/03 00:03:02;;;;;;;4.72;0.95;;;7.60;99.90;;;;;;5036049;28;20120;-82
2022/01/03 00:05:28;;;;;;;4.72;0.80;;;8.60;99.90;;;;;;5041590;28;20104;-80
2022/01/03 00:07:54;;;;;;;6.30;1.15;;;8.20;99.90;;;;;;5039321;28;20117;-84
2022/01/03 00:10:20;;;;;;;5.95;0.82;;;8.30;99.90;;;;;;5032935;28;20132;-80
2022/01/03 00:12:47;;;;;;;2.38;0.55;;;7.70;99.90;;;;;;5032873;28;20049;-79
2022/01/03 00:15:15;;;;;;;6.35;1.10;;;7.70;99.90;;;;;;5033152;28;20041;-79
2022/01/03 00:17:41;;;;;;;8.57;1.40;;;7.80;99.90;;;;;;5032892;28;20048;-79
2022/01/03 00:20:08;;;;;;;4.50;1.10;;;7.80;99.90;;;;;;5032732;28;20527;-80
2022/01/03 00:22:48;;;;;;;5.80;1.35;;;7.80;99.90;;;;;;5031710;28;20083;-79
2022/01/03 00:25:19;;;;;;;10.43;2.03;;;8.10;99.90;;;;;;5032700;28;20125;-80
2022/01/03 00:27:46;;;;;;;6.60;2.10;;;7.90;99.90;;;;;;5032526;28;20072;-79
2022/01/03 00:30:12;;;;;;;11.23;1.95;;;7.90;99.90;;;;;;5031289;28;20057;-79
2022/01/03 00:32:42;;;;;;;9.95;2.72;;;7.90;99.90;;;;;;5032224;28;20041;-80
2022/01/03 00:35:08;;;;;;;10.50;2.28;;;8.00;99.90;;;;;;5032756;28;20120;-80
2022/01/03 00:37:35;;;;;;;7.95;2.22;;;8.00;99.90;;;;;;5032615;28;20035;-78
2022/01/03 00:40:02;;;;;;;7.90;1.90;;;8.10;99.90;;;;;;5032339;28;20446;-79
2022/01/03 00:42:27;;;;;;;10.15;2.33;;;8.30;99.90;;;;;;5032309;28;20050;-80
2022/01/03 00:44:53;;;;;;;9.43;2.45;;;8.80;99.90;;;;;;5031142;28;20051;-80
2022/01/03 00:47:20;;;;;;;13.82;2.58;;;8.30;99.90;;;;;;5030561;28;20499;-80
2022/01/03 00:49:46;;;;;;;13.80;2.97;;;8.30;99.90;;;;;;5032632;28;20369;-79
2022/01/03 00:52:11;;;;;;;15.57;2.65;;;8.40;99.90;;;;;;5032567;28;20132;-80
2022/01/03 00:54:37;;;;;;;12.77;2.60;;;8.40;99.90;;;;;;5032507;28;20398;-79
2022/01/03 00:57:07;;;;;;;13.80;2.75;;;8.40;99.90;;;;;;5031121;28;20121;-79
2022/01/03 00:59:42;;;;;;;11.07;2.63;;;8.50;99.90;;;;;;5032828;28;20430;-80
2022/01/03 01:02:11;;;;;;;12.55;2.38;;;8.50;99.90;;;;;;5032198;28;20037;-79
2022/01/03 01:04:38;;;;;;;14.43;2.78;;;9.00;99.90;;;;;;5032239;28;20120;-80
2022/01/03 01:07:05;;;;;;;12.18;2.28;;;8.60;99.90;;;;;;5032518;28;20125;-80
2022/01/03 01:09:33;;;;;;;11.32;2.42;;;8.60;99.90;;;;;;5031227;28;20072;-80
2022/01/03 01:12:00;;;;;;;13.18;2.30;;;8.70;99.90;;;;;;5030567;28;20415;-80
2022/01/03 01:14:27;;;;;;;11.25;2.60;;;8.90;99.90;;;;;;5030807;28;20053;-79
2022/01/03 01:16:53;;;;;;;15.13;2.80;;;8.70;99.90;;;;;;5014163;28;20105;-80
2022/01/03 01:19:21;;;;;;;19.50;3.05;;;8.90;99.90;;;;;;5032459;28;20108;-82
2022/01/03 01:21:51;;;;;;;14.88;3.08;;;8.90;99.90;;;;;;5032543;28;20041;-83
2022/01/03 01:24:19;;;;;;;16.13;2.90;;;8.80;99.90;;;;;;5032302;28;20059;-82
2022/01/03 01:29:30;;;;;;;22.08;2.97;;;8.80;99.90;;;;;;5031731;28;20058;-81
2022/01/03 01:32:00;;;;;;;15.73;2.50;;;8.80;99.90;;;;;;5032197;28;20044;-84
2022/01/03 01:34:28;;;;;;;16.00;2.58;;;8.80;99.90;;;;;;5032184;28;20074;-83
2022/01/03 01:36:57;;;;;;;20.58;3.33;;;8.80;99.90;;;;;;5031920;28;20121;-84
2022/01/03 01:39:27;;;;;;;15.52;3.03;;;8.80;99.90;;;;;;5031943;28;20205;-78
2022/01/03 01:42:01;;;;;;;17.00;3.13;;;8.90;99.90;;;;;;5031659;28;20044;-83
2022/01/03 01:44:29;;;;;;;13.75;2.55;;;8.90;99.90;;;;;;5033276;28;20033;-82
2022/01/03 01:47:01;;;;;;;18.73;3.53;;;8.90;99.90;;;;;;5034180;28;20107;-83
2022/01/03 01:49:27;;;;;;;15.63;2.60;;;8.90;99.90;;;;;;5034074;28;20520;-84
2022/01/03 01:51:59;;;;;;;16.15;2.38;;;8.90;99.90;;;;;;5035283;28;20132;-83
2022/01/03 01:54:31;;;;;;;11.77;2.60;;;8.90;99.90;;;;;;5035250;28;20121;-83
2022/01/03 01:57:03;;;;;;;16.83;3.10;;;9.10;99.90;;;;;;5035468;28;20565;-83
2022/01/03 01:59:40;;;;;;;19.90;3.22;;;8.90;99.90;;;;;;5035121;28;20038;-82
2022/01/03 02:02:09;;;;;;;19.73;3.50;;;8.80;99.90;;;;;;5035375;28;20053;-81
2022/01/03 02:04:55;;;;;;;16.50;3.60;;;8.90;99.90;;;;;;5035146;28;20065;-83
2022/01/03 02:07:42;;;;;;;16.20;3.20;;;8.90;99.90;;;;;;5035302;28;20072;-83
2022/01/03 02:10:14;;;;;;;20.45;3.88;;;8.90;99.90;;;;;;5035137;28;20053;-81
2022/01/03 02:12:49;;;;;;;16.83;3.47;;;9.80;99.90;;;;;;5035217;28;20056;-83
2022/01/03 02:15:17;;;;;;;22.05;3.47;;;8.90;99.90;;;;;;5035253;28;20049;-83
2022/01/03 02:17:48;;;;;;;17.00;2.90;;;9.40;99.90;;;;;;5035114;28;20407;-84
2022/01/03 02:20:15;;;;;;;18.20;3.22;;;8.90;99.90;;;;;;5034013;28;20064;-84
2022/01/03 02:22:42;;;;;;;19.10;3.25;;;9.00;99.90;;;;;;5035537;28;20399;-82
2022/01/03 02:25:09;;;;;;;19.05;3.40;;;9.00;99.90;;;;;;5034062;28;20042;-83
2022/01/03 02:27:36;;;;;;;20.00;3.15;;;8.90;99.90;;;;;;5034946;28;20048;-83
2022/01/03 02:30:05;;;;;;;16.42;3.40;;;8.90;99.90;;;;;;5035059;28;20496;-81
2022/01/03 02:32:31;;;;;;;19.25;3.53;;;8.90;99.90;;;;;;5033801;28;20131;-83
2022/01/03 02:34:57;;;;;;;18.98;4.15;;;9.00;99.90;;;;;;5033784;28;20081;-83
2022/01/03 02:37:23;;;;;;;20.52;3.42;;;8.90;99.90;;;;;;5035071;28;20100;-83
2022/01/03 02:39:53;;;;;;;22.80;4.38;;;9.40;99.90;;;;;;5034787;28;20041;-83
2022/01/03 02:42:23;;;;;;;25.05;5.03;;;8.90;99.90;;;;;;5034851;28;20038;-82
2022/01/03 02:45:09;;;;;;;13.15;2.90;;;9.20;99.90;;;;;;5033565;28;20045;-82
2022/01/03 02:47:35;;;;;;;16.10;3.10;;;8.90;99.90;;;;;;5033040;28;20057;-82
2022/01/03 02:50:01;;;;;;;16.80;3.33;;;9.30;99.90;;;;;;5034513;28;20038;-82
2022/01/03 02:52:27;;;;;;;21.45;3.80;;;9.00;99.90;;;;;;5032893;28;20418;-80
2022/01/03 02:54:53;;;;;;;19.00;3.63;;;9.00;99.90;;;;;;5032839;28;20072;-81
2022/01/03 02:57:25;;;;;;;18.67;3.25;;;9.10;99.90;;;;;;5032205;28;20128;-82
2022/01/03 02:59:55;;;;;;;20.33;4.32;;;9.00;99.90;;;;;;5034258;28;20068;-81
2022/01/03 03:02:22;;;;;;;13.93;3.60;;;9.00;99.90;;;;;;5032971;28;20422;-81
2022/01/03 03:04:53;;;;;;;21.98;4.15;;;9.40;99.90;;;;;;5034116;28;20088;-83
2022/01/03 03:07:20;;;;;;;22.80;3.67;;;9.00;99.90;;;;;;5033841;28;20372;-81
2022/01/03 03:09:46;;;;;;;19.30;3.42;;;8.90;99.90;;;;;;5034109;28;20038;-82
2022/01/03 03:12:11;;;;;;;16.45;3.22;;;8.90;99.90;;;;;;5032598;28;20056;-80
2022/01/03 03:14:38;;;;;;;20.85;3.67;;;9.00;99.90;;;;;;5033806;28;20155;-84
2022/01/03 03:17:04;;;;;;;15.52;3.38;;;8.90;99.90;;;;;;5032205;28;20045;-82
2022/01/03 03:19:30;;;;;;;19.67;3.33;;;9.30;99.90;;;;;;5033770;28;20046;-84
2022/01/03 03:21:56;;;;;;;20.08;3.42;;;8.90;99.90;;;;;;5033477;28;20033;-81
2022/01/03 03:24:21;;;;;;;22.80;3.78;;;8.90;99.90;;;;;;5033769;28;20048;-80
2022/01/03 03:26:47;;;;;;;19.67;3.85;;;8.90;99.90;;;;;;5033382;28;20041;-80
2022/01/03 03:29:13;;;;;;;16.30;3.63;;;9.70;99.90;;;;;;5032356;28;20259;-81
2022/01/03 03:31:38;;;;;;;20.05;3.88;;;8.90;99.90;;;;;;5032426;28;20029;-82
2022/01/03 03:34:05;;;;;;;21.15;3.42;;;8.90;99.90;;;;;;5033667;28;20099;-84
2022/01/03 03:36:31;;;;;;;23.02;3.60;;;8.90;99.90;;;;;;5033376;28;20499;-82
2022/01/03 03:38:57;;;;;;;20.45;3.58;;;8.90;99.90;;;;;;5033393;28;20049;-82
2022/01/03 03:41:22;;;;;;;21.20;4.03;;;8.90;99.90;;;;;;5033350;28;20048;-82
2022/01/03 03:43:48;;;;;;;19.75;3.92;;;8.90;99.90;;;;;;5033021;28;20038;-82
2022/01/03 03:46:14;;;;;;;16.55;3.15;;;8.80;99.90;;;;;;5033103;28;20491;-82
2022/01/03 03:48:40;;;;;;;20.95;3.97;;;9.10;99.90;;;;;;5033469;28;20057;-83
2022/01/03 03:51:06;;;;;;;22.40;4.35;;;8.90;99.90;;;;;;5032254;28;20044;-82
2022/01/03 03:53:32;;;;;;;19.05;3.75;;;8.90;99.90;;;;;;5034098;28;20049;-83
2022/01/03 03:55:57;;;;;;;19.63;3.50;;;8.90;99.90;;;;;;5034888;28;20415;-79
2022/01/03 03:58:23;;;;;;;18.15;3.25;;;8.90;99.90;;;;;;5043858;28;20395;-82
2022/01/03 04:00:49;;;;;;;19.55;4.35;;;8.80;99.90;;;;;;5042231;28;20396;-82
2022/01/03 04:03:14;;;;;;;22.00;4.30;;;9.30;99.90;;;;;;5039974;28;20132;-82
2022/01/03 04:05:40;;;;;;;18.70;3.60;;;8.80;99.90;;;;;;5035917;28;20045;-82
2022/01/03 04:08:06;;;;;;;17.63;3.78;;;9.30;99.90;;;;;;5033075;28;20435;-81
2022/01/03 04:10:31;;;;;;;18.83;4.03;;;8.70;99.90;;;;;;5032913;28;20400;-81
2022/01/03 04:12:57;;;;;;;22.00;4.30;;;8.70;99.90;;;;;;5032922;28;20410;-79
2022/01/03 04:15:23;;;;;;;20.05;3.95;;;8.70;99.90;;;;;;5032714;28;20061;-81
2022/01/03 04:17:49;;;;;;;24.00;3.30;;;9.00;99.90;;;;;;5032839;28;20091;-80
2022/01/03 04:20:17;;;;;;;18.00;3.67;;;8.60;99.90;;;;;;5032809;28;20040;-81
2022/01/03 04:22:43;;;;;;;23.65;4.15;;;8.60;99.90;;;;;;5032930;28;20049;-80
2022/01/03 04:25:10;;;;;;;18.95;2.85;;;8.60;99.90;;;;;;5032733;28;20399;-81
2022/01/03 04:27:36;;;;;;;18.80;4.05;;;8.60;99.90;;;;;;5032512;28;20428;-81
2022/01/03 04:30:04;;;;;;;22.52;4.10;;;9.30;99.90;;;;;;5032414;28;20068;-79
2022/01/03 04:32:29;;;;;;;17.27;3.35;;;8.70;99.90;;;;;;5032920;28;20045;-81
2022/01/03 04:34:55;;;;;;;25.65;4.00;;;8.70;99.90;;;;;;5032849;28;20483;-81
2022/01/03 04:37:20;;;;;;;24.05;4.22;;;8.70;99.90;;;;;;5032734;28;20053;-80
2022/01/03 04:39:46;;;;;;;12.15;2.80;;;8.60;99.90;;;;;;5032768;28;20107;-81
2022/01/03 04:42:12;;;;;;;18.92;3.53;;;8.70;99.90;;;;;;5031234;28;20483;-81
2022/01/03 04:44:38;;;;;;;17.08;3.78;;;9.30;99.90;;;;;;5032085;28;20045;-81
2022/01/03 04:47:04;;;;;;;23.02;3.85;;;8.70;99.90;;;;;;5030956;28;20096;-81
2022/01/03 04:49:30;;;;;;;22.15;3.92;;;8.70;99.90;;;;;;5032542;28;20052;-81
2022/01/03 04:51:56;;;;;;;27.13;4.18;;;8.90;99.90;;;;;;5032496;28;20144;-81
2022/01/03 04:54:21;;;;;;;21.20;4.78;;;8.70;99.90;;;;;;5032486;28;20509;-81
2022/01/03 04:56:47;;;;;;;25.60;4.50;;;9.10;99.90;;;;;;5032523;28;20517;-80
2022/01/03 04:59:13;;;;;;;16.70;3.60;;;8.70;99.90;;;;;;5030844;28;20124;-81
2022/01/03 05:01:38;;;;;;;19.80;4.03;;;8.80;99.90;;;;;;5032215;28;20107;-82
2022/01/03 05:04:04;;;;;;;18.58;4.05;;;8.70;99.90;;;;;;5032276;28;20045;-82
2022/01/03 05:06:30;;;;;;;24.00;4.20;;;8.70;99.90;;;;;;5032321;28;20049;-81
2022/01/03 05:08:55;;;;;;;24.67;4.10;;;8.70;99.90;;;;;;5032270;28;20076;-81
2022/01/03 05:11:21;;;;;;;25.55;4.45;;;8.90;99.90;;;;;;5031353;28;20041;-82
2022/01/03 05:13:47;;;;;;;22.92;5.97;;;9.10;99.90;;;;;;5032264;28;20064;-82
2022/01/03 05:16:12;;;;;;;26.63;4.85;;;8.80;99.90;;;;;;5032407;28;20037;-80
2022/01/03 05:18:38;;;;;;;21.02;4.22;;;8.80;99.90;;;;;;5030991;28;20037;-81
2022/01/03 05:21:04;;;;;;;22.35;4.32;;;8.90;99.90;;;;;;5035961;28;20407;-80
2022/01/03 05:23:30;;;;;;;26.38;4.68;;;8.80;99.90;;;;;;5036154;28;20033;-81
2022/01/03 05:25:56;;;;;;;27.05;4.45;;;9.40;99.90;;;;;;5035725;28;20052;-79
2022/01/03 05:28:21;;;;;;;31.30;5.13;;;9.10;99.90;;;;;;5035607;28;20041;-82
2022/01/03 05:30:47;;;;;;;22.48;4.28;;;8.80;99.90;;;;;;5034384;28;20515;-80
2022/01/03 05:33:13;;;;;;;25.45;4.35;;;9.60;99.90;;;;;;5035835;28;20428;-80
2022/01/03 05:35:38;;;;;;;22.50;4.20;;;8.80;99.90;;;;;;5017995;28;20099;-83
2022/01/03 05:38:04;;;;;;;26.40;4.78;;;8.70;99.90;;;;;;5035907;28;20064;-81
2022/01/03 05:40:30;;;;;;;21.35;4.35;;;8.70;99.90;;;;;;5036303;28;20048;-80
2022/01/03 05:42:56;;;;;;;25.02;4.63;;;8.80;99.90;;;;;;5035697;28;20088;-83
2022/01/03 05:45:21;;;;;;;23.67;4.93;;;8.80;99.90;;;;;;5035529;28;20551;-80
2022/01/03 05:47:47;;;;;;;23.75;5.22;;;8.80;99.90;;;;;;5035344;28;20053;-82
2022/01/03 05:50:15;;;;;;;24.13;4.28;;;9.00;99.90;;;;;;5035616;28;20042;-83
2022/01/03 05:52:41;;;;;;;23.42;4.97;;;9.00;99.90;;;;;;5017758;28;20053;-81
2022/01/03 05:55:07;;;;;;;23.48;4.60;;;8.70;99.90;;;;;;5017569;28;20052;-82
2022/01/03 05:57:33;;;;;;;25.08;4.80;;;8.70;99.90;;;;;;5035323;28;20049;-81
2022/01/03 06:00:00;;;;;;;18.13;4.40;;;9.50;99.90;;;;;;5034343;28;20096;-81
2022/01/03 06:02:28;;;;;;;23.25;4.70;;;9.00;99.90;;;;;;5034959;28;20107;-80
2022/01/03 06:07:20;;;;;;;27.23;4.70;;;8.60;99.90;;;;;;5035204;28;20046;-80
2022/01/03 06:09:47;;;;;;;24.13;5.00;;;8.90;99.90;;;;;;5017138;28;20052;-81
2022/01/03 06:12:13;;;;;;;25.08;4.82;;;8.60;99.90;;;;;;5035067;28;20522;-80
2022/01/03 06:14:39;;;;;;;24.63;4.68;;;8.70;99.90;;;;;;5017343;28;20505;-81
2022/01/03 06:17:05;;;;;;;19.15;3.97;;;8.70;99.90;;;;;;5034929;28;20085;-81
2022/01/03 06:19:35;;;;;;;23.48;4.90;;;8.70;99.90;;;;;;5035042;28;20037;-80
2022/01/03 06:22:08;;;;;;;22.85;4.43;;;8.70;99.90;;;;;;5034837;28;20518;-82
2022/01/03 06:24:34;;;;;;;28.77;5.03;;;8.70;99.90;;;;;;5033449;28;20120;-80
2022/01/03 06:27:00;;;;;;;24.23;5.00;;;8.80;99.90;;;;;;5034680;28;20046;-80
2022/01/03 06:29:26;;;;;;;30.35;4.80;;;8.80;99.90;;;;;;5034680;28;20043;-81
2022/01/03 06:31:52;;;;;;;24.67;4.93;;;8.80;99.90;;;;;;5033244;28;20069;-81
2022/01/03 06:34:17;;;;;;;22.65;4.93;;;8.70;99.90;;;;;;5034730;28;20120;-81
2022/01/03 06:36:44;;;;;;;25.83;4.97;;;8.80;99.90;;;;;;5034618;28;20037;-81
2022/01/03 06:39:11;;;;;;;23.52;4.00;;;9.20;99.90;;;;;;5034610;28;20045;-81
2022/01/03 06:41:38;;;;;;;21.88;4.60;;;8.70;99.90;;;;;;5033395;28;20045;-80
2022/01/03 06:44:04;;;;;;;21.58;4.47;;;8.70;99.90;;;;;;5032874;28;20084;-81
2022/01/03 06:46:30;;;;;;;22.65;4.82;;;8.70;99.90;;;;;;5016497;28;20053;-81
2022/01/03 06:48:56;;;;;;;29.70;4.90;;;8.70;99.90;;;;;;5032968;28;20049;-80
2022/01/03 06:51:21;;;;;;;29.10;5.20;;;8.60;99.90;;;;;;5034102;28;20041;-80
2022/01/03 06:53:47;;;;;;;24.52;4.95;;;8.70;99.90;;;;;;5016412;28;20132;-80
2022/01/03 06:56:13;;;;;;;21.02;4.10;;;8.50;99.90;;;;;;5016035;28;20061;-81
2022/01/03 06:58:39;;;;;;;22.17;4.55;;;8.50;99.90;;;;;;5034140;28;20095;-81
2022/01/03 07:01:05;;;;;;;22.88;4.88;;;8.60;99.90;;;;;;5034032;28;20085;-81
2022/01/03 07:03:31;;;;;;;20.00;4.15;;;8.50;99.90;;;;;;5033926;28;20046;-81
2022/01/03 07:05:57;;;;;;;28.00;4.45;;;9.30;99.90;;;;;;5034006;28;20048;-81
2022/01/03 07:08:22;;;;;;;24.50;4.35;;;9.60;99.90;;;;;;5034019;28;20120;-81
2022/01/03 07:10:49;;;;;;;24.00;4.07;;;9.20;99.90;;;;;;5034264;28;20129;-81
2022/01/03 07:13:15;;;;;;;25.00;4.97;;;8.70;99.90;;;;;;5033828;28;20099;-81
2022/01/03 07:21:10;;;;;;;23.42;4.32;;;8.70;99.90;;;;;;5032748;28;20380;-82
2022/01/03 07:23:36;;;;;;;17.00;3.55;;;8.70;99.90;;;;;;5033664;28;20056;-80
2022/01/03 07:26:02;;;;;;;18.77;3.20;;;8.70;99.90;;;;;;5032782;28;20041;-83
2022/01/03 07:28:28;;;;;;;18.75;3.30;;;9.00;99.90;;;;;;5033424;28;20049;-79
2022/01/03 07:30:53;;;;;;;14.73;3.15;;;9.30;99.90;;;;;;5032615;28;20083;-80
2022/01/03 07:33:19;;;;;;;23.85;4.07;;;8.70;99.90;;;;;;5033660;28;20052;-82
2022/01/03 07:35:45;;;;;;;20.92;3.55;;;8.70;99.90;;;;;;5032544;28;20052;-83
2022/01/03 07:38:10;;;;;;;18.33;3.75;;;8.70;99.90;;;;;;5033342;28;20056;-82
2022/01/03 07:40:36;;;;;;;16.60;3.70;;;8.70;99.90;;;;;;5033285;28;20041;-81
2022/01/03 07:43:02;;;;;;;19.73;3.90;;;8.90;99.90;;;;;;5031643;28;20080;-81
2022/01/03 07:45:28;;;;;;;24.17;4.53;;;9.00;99.90;;;;;;5032251;28;20148;-82
2022/01/03 07:47:54;;;;;;;17.23;3.22;;;8.80;99.90;;;;;;5033066;28;20053;-81
2022/01/03 07:50:20;;;;;;;15.63;2.80;;;8.80;99.90;;;;;;5038150;28;20077;-80
2022/01/03 07:52:45;;;;;;;14.38;2.92;;;9.30;99.90;;;;;;5043166;28;20053;-81
2022/01/03 07:55:13;;;;;;;16.83;4.20;;;8.70;99.90;;;;;;5038008;28;20430;-80
2022/01/03 07:57:39;;;;;;;19.10;2.47;;;9.50;99.90;;;;;;5033919;28;20489;-81
2022/01/03 08:00:07;;;;;;;17.10;2.58;;;8.80;99.90;;;;;;5033315;28;20064;-81
2022/01/03 08:02:33;;;;;;;20.58;5.45;;;8.80;99.90;;;;;;5032818;28;20614;-81
2022/01/03 08:04:59;;;;;;;18.23;2.78;;;8.80;99.90;;;;;;5032972;28;20124;-81
2022/01/03 08:07:25;;;;;;;24.85;3.38;;;8.80;99.90;;;;;;5031487;28;20404;-80
2022/01/03 08:09:51;;;;;;;19.13;3.28;;;8.80;99.90;;;;;;5033037;28;20041;-81
2022/01/03 08:12:17;;;;;;;18.20;2.75;;;8.70;99.90;;;;;;5032873;28;20049;-80
2022/01/03 08:14:44;;;;;;;20.15;3.50;;;9.40;99.90;;;;;;5032594;28;20514;-79
2022/01/03 08:17:09;;;;;;;18.65;3.45;;;8.80;99.90;;;;;;5014974;28;20045;-80
2022/01/03 08:19:35;;;;;;;21.48;4.22;;;8.60;99.90;;;;;;5032827;28;20037;-81
2022/01/03 08:22:01;;;;;;;17.05;2.78;;;8.60;99.90;;;;;;5032650;28;20044;-81
2022/01/03 08:24:27;;;;;;;18.50;3.97;;;8.50;99.90;;;;;;5032716;28;20068;-81
2022/01/03 08:26:53;;;;;;;13.32;2.85;;;8.50;99.90;;;;;;5031584;28;20041;-80
2022/01/03 08:29:18;;;;;;;15.27;2.35;;;8.40;99.90;;;;;;5032413;28;20057;-81
2022/01/03 08:31:44;;;;;;;20.83;3.47;;;8.40;99.90;;;;;;5032761;28;20080;-81
2022/01/03 08:34:10;;;;;;;22.30;4.22;;;8.40;99.90;;;;;;5015126;28;20088;-81
2022/01/03 08:36:38;;;;;;;15.18;3.60;;;8.40;99.90;;;;;;5032866;28;20107;-80
2022/01/03 08:39:14;;;;;;;23.20;4.97;;;8.50;99.90;;;;;;5014818;28;20465;-80
2022/01/03 08:41:40;;;;;;;18.95;4.10;;;8.60;99.90;;;;;;5032488;28;20124;-80
2022/01/03 08:44:06;;;;;;;24.17;3.72;;;8.60;99.90;;;;;;5032137;28;20124;-81
2022/01/03 08:46:32;;;;;;;15.40;3.33;;;8.70;99.90;;;;;;5014749;28;20144;-78
2022/01/03 08:48:58;;;;;;;20.05;2.88;;;8.70;99.90;;;;;;5032662;28;20436;-80
2022/01/03 08:51:25;;;;;;;13.73;3.10;;;8.80;99.90;;;;;;5032505;28;20076;-83
2022/01/03 08:53:51;;;;;;;16.27;3.50;;;8.80;99.90;;;;;;5033113;28;20071;-82
2022/01/03 08:56:17;;;;;;;18.90;3.28;;;8.80;99.90;;;;;;5036582;28;20042;-80
2022/01/03 08:58:43;;;;;;;25.27;3.58;;;9.00;99.90;;;;;;5035488;28;20080;-82
2022/01/03 09:01:08;;;;;;;11.07;2.88;;;8.90;99.90;;;;;;5035024;28;20056;-81
2022/01/03 09:03:34;;;;;;;14.05;2.85;;;8.90;99.90;;;;;;5036597;28;20049;-81
2022/01/03 09:06:00;;;;;;;18.70;3.10;;;9.00;99.90;;;;;;5036139;28;20038;-80
2022/01/03 09:08:25;;;;;;;21.95;3.40;;;9.00;99.90;;;;;;5036270;28;20069;-81
2022/01/03 09:10:51;;;;;;;18.05;3.25;;;9.00;99.90;;;;;;5018790;28;20057;-82
2022/01/03 09:13:18;;;;;;;22.65;3.15;;;9.10;99.90;;;;;;5034852;28;20128;-81
2022/01/03 09:15:46;;;;;;;16.60;3.80;;;9.10;99.90;;;;;;5036032;28;20044;-83
2022/01/03 09:18:18;;;;;;;24.80;3.38;;;9.10;99.90;;;;;;5034863;28;20045;-81
2022/01/03 09:20:45;;;;;;;23.38;3.05;;;10.20;99.90;;;;;;5018189;28;20068;-82
2022/01/03 09:23:26;;;;;;;20.85;3.42;;;9.20;99.90;;;;;;5034958;28;20046;-81
2022/01/03 09:28:49;;;;;;;13.95;3.63;;;9.30;99.90;;;;;;5034505;28;20480;-80
2022/01/03 09:31:20;;;;;;;14.15;2.88;;;9.30;99.90;;;;;;5035850;28;20053;-83
2022/01/03 09:33:45;;;;;;;20.55;3.03;;;9.30;99.90;;;;;;5035795;28;20120;-83
2022/01/03 09:36:11;;;;;;;15.32;2.72;;;9.40;99.90;;;;;;5035610;28;20626;-82
2022/01/03 09:38:37;;;;;;;16.98;2.50;;;9.60;99.90;;;;;;5035597;28;20045;-81
2022/01/03 09:41:05;;;;;;;26.10;3.10;;;9.40;99.90;;;;;;5035810;28;20475;-80
2022/01/03 09:44:01;;;;;;;18.08;2.72;;;9.40;99.90;;;;;;5035698;28;20120;-82
2022/01/03 09:46:36;;;;;;;14.18;3.28;;;9.40;99.90;;;;;;5033432;28;20148;-82
2022/01/03 09:49:04;;;;;;;23.23;4.38;;;9.40;99.90;;;;;;5034230;28;20057;-82
2022/01/03 09:51:31;;;;;;;18.95;3.10;;;9.40;99.90;;;;;;5035289;28;20045;-81
2022/01/03 09:54:10;;;;;;;19.20;3.10;;;9.40;99.90;;;;;;5035264;28;20367;-81
2022/01/03 09:56:38;;;;;;;18.05;3.08;;;9.40;99.90;;;;;;5034351;28;20472;-82
2022/01/03 09:59:06;;;;;;;18.33;3.22;;;9.40;99.90;;;;;;5034461;28;20514;-83
2022/01/03 10:01:33;;;;;;;17.92;2.85;;;9.40;99.90;;;;;;5035271;28;20495;-82
2022/01/03 10:03:59;;;;;;;19.85;3.10;;;9.50;99.90;;;;;;5017094;28;20148;-81
2022/01/03 10:06:25;;;;;;;18.15;4.03;;;9.40;99.90;;;;;;5035226;28;20037;-83
2022/01/03 10:08:51;;;;;;;16.83;2.88;;;9.50;99.90;;;;;;5035855;28;20052;-83
2022/01/03 10:11:19;;;;;;;17.63;2.92;;;9.50;99.90;;;;;;5033726;28;20115;-81
2022/01/03 10:13:45;;;;;;;14.45;2.83;;;9.50;99.90;;;;;;5035333;28;20053;-82
2022/01/03 10:16:11;;;;;;;13.55;2.60;;;10.20;99.90;;;;;;5034214;28;20038;-83
2022/01/03 10:18:37;;;;;;;15.02;2.70;;;9.40;99.90;;;;;;5034583;28;20049;-82
2022/01/03 10:21:05;;;;;;;19.23;3.00;;;9.50;99.90;;;;;;5033579;28;20041;-81
2022/01/03 10:23:31;;;;;;;19.23;2.63;;;10.40;99.90;;;;;;5034659;28;20472;-82
2022/01/03 10:26:18;;;;;;;21.60;2.75;;;10.30;99.90;;;;;;5034590;28;20403;-82
2022/01/03 10:28:44;;;;;;;14.82;2.50;;;9.50;99.90;;;;;;5034385;28;20406;-80
2022/01/03 10:31:15;;;;;;;15.40;2.83;;;9.40;99.90;;;;;;5033245;28;20438;-82
2022/01/03 10:33:40;;;;;;;12.90;2.40;;;10.00;99.90;;;;;;5034655;28;20064;-82
2022/01/03 10:36:11;;;;;;;16.77;4.00;;;9.50;99.90;;;;;;5034360;28;20400;-83
2022/01/03 10:38:41;;;;;;;13.35;2.70;;;10.10;99.90;;;;;;5034607;28;20076;-80
2022/01/03 10:41:18;;;;;;;19.25;4.07;;;9.50;99.90;;;;;;5034517;28;20442;-81
2022/01/03 10:43:49;;;;;;;14.25;2.55;;;9.40;99.90;;;;;;5034630;28;20060;-81
2022/01/03 10:46:25;;;;;;;11.70;3.33;;;9.40;99.90;;;;;;5033055;28;20045;-82
2022/01/03 10:48:53;;;;;;;19.63;3.85;;;9.40;99.90;;;;;;5033346;28;20056;-81
2022/01/03 10:51:25;;;;;;;19.63;3.05;;;9.70;99.90;;;;;;5033408;28;20053;-82
2022/01/03 10:53:53;;;;;;;18.40;2.93;;;9.40;99.90;;;;;;5033419;28;20578;-81
2022/01/03 10:56:44;;;;;;;20.05;3.53;;;9.30;99.90;;;;;;5035146;28;20042;-84
2022/01/03 10:59:15;;;;;;;13.18;3.00;;;9.40;99.90;;;;;;5034403;28;20068;-84
2022/01/03 11:01:43;;;;;;;19.50;4.13;;;9.80;99.90;;;;;;5032963;28;20041;-84
2022/01/03 11:04:11;;;;;;;15.88;3.15;;;9.40;99.90;;;;;;5034198;28;20538;-83
2022/01/03 11:07:01;;;;;;;16.45;2.75;;;9.40;99.90;;;;;;5034132;28;20517;-82
2022/01/03 11:12:18;;;;;;;12.38;2.58;;;9.40;99.90;;;;;;5034218;28;20060;-84
2022/01/03 11:14:43;;;;;;;15.65;2.65;;;9.40;99.90;;;;;;5033941;28;20041;-84
2022/01/03 11:17:24;;;;;;;13.57;2.58;;;10.00;99.90;;;;;;5033013;28;20034;-83
2022/01/03 11:19:50;;;;;;;17.27;2.88;;;9.50;99.90;;;;;;5033836;28;20116;-83
2022/01/03 11:22:54;;;;;;;17.25;2.60;;;9.60;99.90;;;;;;5034127;28;20546;-83
2022/01/03 11:25:34;;;;;;;17.08;3.28;;;9.70;99.90;;;;;;4954604;29;20047;-83
2022/01/03 11:28:01;;;;;;;16.95;3.28;;;9.60;99.90;;;;;;4954405;29;20058;-82
2022/01/03 11:30:27;;;;;;;14.10;2.95;;;9.60;99.90;;;;;;4954484;29;20387;-83
2022/01/03 11:32:55;;;;;;;8.98;2.13;;;9.80;99.90;;;;;;4953519;29;20069;-84
2022/01/03 11:40:31;;;;;;;10.50;2.20;;;9.60;99.90;;;;;;5265226;22;20108;-83
2022/01/03 11:42:58;;;;;;;13.68;2.50;;;9.50;99.90;;;;;;5037863;28;20049;-81
2022/01/03 11:45:24;;;;;;;16.60;2.40;;;10.60;99.90;;;;;;5045007;28;20055;-81
2022/01/03 11:47:51;;;;;;;19.77;3.58;;;9.60;99.90;;;;;;5046781;28;20101;-81
2022/01/03 11:50:17;;;;;;;14.07;3.03;;;9.60;99.90;;;;;;5033904;28;20033;-82
2022/01/03 11:52:44;;;;;;;16.80;3.03;;;9.60;99.90;;;;;;5033599;28;20124;-80
2022/01/03 11:55:12;;;;;;;13.13;2.25;;;9.60;99.90;;;;;;5033341;28;20064;-80
2022/01/03 12:06:04;;;;;;;14.35;1.85;;;9.50;99.90;;;;;;5033206;28;20513;-80
2022/01/03 12:08:34;;;;;;;10.18;1.98;;;9.50;99.90;;;;;;5033123;28;20053;-81
2022/01/03 12:11:18;;;;;;;12.98;2.22;;;9.60;99.90;;;;;;5033107;28;20096;-81
2022/01/03 12:13:49;;;;;;;19.90;2.33;;;9.60;99.90;;;;;;5031651;28;20041;-79
2022/01/03 12:16:16;;;;;;;17.60;1.98;;;9.60;99.90;;;;;;5032622;28;20175;-81
2022/01/03 12:19:01;;;;;;;13.18;2.53;;;9.70;99.90;;;;;;5032915;28;20450;-82
2022/01/03 12:21:48;;;;;;;19.02;3.28;;;9.70;99.90;;;;;;5032810;28;20048;-80
2022/01/03 12:24:26;;;;;;;23.75;3.13;;;9.80;99.90;;;;;;5015029;28;20050;-82
2022/01/03 12:27:10;;;;;;;19.48;2.97;;;9.80;99.90;;;;;;5032576;28;20049;-80
2022/01/03 12:29:57;;;;;;;14.10;2.00;;;9.80;99.90;;;;;;5014562;28;20076;-81
2022/01/03 12:32:36;;;;;;;23.20;4.10;;;9.90;99.90;;;;;;5031737;28;20111;-81
2022/01/03 12:35:08;;;;;;;26.00;3.13;;;9.90;99.90;;;;;;5032735;28;20108;-80
2022/01/03 12:37:36;;;;;;;15.02;2.30;;;10.20;99.90;;;;;;5032787;28;20128;-81
2022/01/03 12:40:02;;;;;;;12.38;2.42;;;9.80;99.90;;;;;;5032315;28;20552;-79
2022/01/03 12:42:49;;;;;;;15.27;2.92;;;9.90;99.90;;;;;;5032488;28;20060;-80
2022/01/03 12:45:30;;;;;;;20.15;3.00;;;10.40;99.90;;;;;;5033329;28;20104;-82
2022/01/03 12:48:11;;;;;;;23.92;3.72;;;10.50;99.90;;;;;;5032286;28;20049;-80
2022/01/03 12:50:44;;;;;;;25.05;3.70;;;10.10;99.90;;;;;;5033656;28;20045;-81
2022/01/03 12:53:13;;;;;;;16.20;3.50;;;10.00;99.90;;;;;;5032018;28;20083;-80
2022/01/03 12:55:39;;;;;;;16.75;2.80;;;10.00;99.90;;;;;;5032042;28;20049;-81
2022/01/03 12:58:13;;;;;;;17.70;2.85;;;10.30;99.90;;;;;;5032026;28;20503;-80
2022/01/03 13:00:46;;;;;;;20.83;4.05;;;10.30;99.90;;;;;;5030701;28;20103;-82
2022/01/03 13:03:22;;;;;;;16.40;3.15;;;10.10;99.90;;;;;;5032243;28;20120;-81
2022/01/03 13:06:05;;;;;;;17.98;2.85;;;10.00;99.90;;;;;;5031970;28;20053;-81
2022/01/03 13:08:37;;;;;;;20.73;3.25;;;10.70;99.90;;;;;;5014188;28;20080;-82
2022/01/03 13:11:06;;;;;;;16.58;3.28;;;10.00;99.90;;;;;;5031810;28;20053;-82
2022/01/03 13:13:32;;;;;;;24.67;4.20;;;10.00;99.90;;;;;;5030885;28;20049;-82
2022/01/03 13:15:58;;;;;;;20.63;2.85;;;10.60;99.90;;;;;;5030569;28;20495;-83
2022/01/03 13:18:24;;;;;;;17.80;3.20;;;9.90;99.90;;;;;;5030865;28;20041;-81
2022/01/03 13:20:59;;;;;;;22.55;3.28;;;10.40;99.90;;;;;;5032030;28;20518;-81